Observation data for Brownfield on 10/13/2019      Previous  Date       Current Mesonet Observations  Soil Data  Daily Summary Page  Observations in Plain Language
KBWS 130500Z 21009KT 11/M00 A3002 RMK A01 T01131003  RH  045%=      5-min Rain = 0
KBWS 130505Z 21009KT 11/M00 A3002 RMK A01 T01141003  RH  045%=      5-min Rain = 0
KBWS 130510Z 21008KT 12/M00 A3002 RMK A01 T01151003  RH  045%=      5-min Rain = 0
KBWS 130515Z 21008KT 11/M00 A3002 RMK A01 T01141003  RH  045%=      5-min Rain = 0
KBWS 130520Z 21009KT 12/M01 A3001 RMK A01 T01161005  RH  044%=      5-min Rain = 0
KBWS 130525Z 21008KT 12/M00 A3001 RMK A01 T01151004  RH  044%=      5-min Rain = 0
KBWS 130530Z 21008KT 11/M00 A3001 RMK A01 T01101002  RH  046%=      5-min Rain = 0
KBWS 130535Z 22007KT 11/M00 A3001 RMK A01 T01091002  RH  047%=      5-min Rain = 0
KBWS 130540Z 22007KT 11/M00 A3001 RMK A01 T01101003  RH  046%=      5-min Rain = 0
KBWS 130545Z 22007KT 11/00 A3001 RMK A01 T010700-0  RH  048%=      5-min Rain = 0
KBWS 130550Z 21007KT 10/00 A30 RMK A01 T01020001  RH  050%=      5-min Rain = 0
KBWS 130555Z 21007KT 10/00 A30 RMK A01 T01000002  RH  051%=      5-min Rain = 0
KBWS 130600Z 21008KT 10/00 A30 RMK A01 T01000001  RH  051%=      5-min Rain = 0
KBWS 130605Z 21008KT 10/00 A30 RMK A01 T01020001  RH  050%=      5-min Rain = 0
KBWS 130610Z 22008KT 10/00 A30 RMK A01 T01030002  RH  050%=      5-min Rain = 0
KBWS 130615Z 21009KT 10/00 A30 RMK A01 T01010004  RH  052%=      5-min Rain = 0
KBWS 130620Z 22008KT 10/00 A30 RMK A01 T01000004  RH  052%=      5-min Rain = 0
KBWS 130625Z 23008KT 10/01 A30 RMK A01 T01010005  RH  052%=      5-min Rain = 0
KBWS 130630Z 23008KT 10/00 A30 RMK A01 T01020004  RH  051%=      5-min Rain = 0
KBWS 130635Z 22008KT 10/01 A30 RMK A01 T01000006  RH  052%=      5-min Rain = 0
KBWS 130640Z 24007KT 10/01 A30 RMK A01 T00980005  RH  053%=      5-min Rain = 0
KBWS 130645Z 24006KT 10/01 A30 RMK A01 T00960006  RH  054%=      5-min Rain = 0
KBWS 130650Z 24006KT 09/01 A30 RMK A01 T00940005  RH  054%=      5-min Rain = 0
KBWS 130655Z 23006KT 09/01 A30 RMK A01 T00930005  RH  055%=      5-min Rain = 0
KBWS 130700Z 23006KT 09/01 A30 RMK A01 T00910006  RH  056%=      5-min Rain = 0
KBWS 130705Z 24006KT 09/01 A30 RMK A01 T00920005  RH  055%=      5-min Rain = 0
KBWS 130710Z 23006KT 09/00 A30 RMK A01 T00930004  RH  054%=      5-min Rain = 0
KBWS 130715Z 23007KT 09/00 A30 RMK A01 T00930003  RH  054%=      5-min Rain = 0
KBWS 130720Z 23007KT 09/00 A30 RMK A01 T00940003  RH  054%=      5-min Rain = 0
KBWS 130725Z 23007KT 09/00 A30 RMK A01 T00930003  RH  054%=      5-min Rain = 0
KBWS 130730Z 24008KT 09/00 A30 RMK A01 T00940002  RH  053%=      5-min Rain = 0
KBWS 130735Z 23008KT 10/00 A30 RMK A01 T00950001  RH  053%=      5-min Rain = 0
KBWS 130740Z 23008KT 10/00 A2999 RMK A01 T00950001  RH  052%=      5-min Rain = 0
KBWS 130745Z 23008KT 09/00 A2999 RMK A01 T00930002  RH  053%=      5-min Rain = 0
KBWS 130750Z 23007KT 09/00 A2999 RMK A01 T00920002  RH  054%=      5-min Rain = 0
KBWS 130755Z 23007KT 09/00 A2999 RMK A01 T00920002  RH  054%=      5-min Rain = 0
KBWS 130800Z 24007KT 09/00 A2999 RMK A01 T00900002  RH  055%=      5-min Rain = 0
KBWS 130805Z 24008KT 09/00 A2999 RMK A01 T00880003  RH  056%=      5-min Rain = 0
KBWS 130810Z 24009KT 09/00 A2999 RMK A01 T00880003  RH  056%=      5-min Rain = 0
KBWS 130815Z 23008KT 09/00 A2999 RMK A01 T00880003  RH  056%=      5-min Rain = 0
KBWS 130820Z 24008KT 09/00 A2999 RMK A01 T00890002  RH  055%=      5-min Rain = 0
KBWS 130825Z 24008KT 09/00 A2999 RMK A01 T00890002  RH  055%=      5-min Rain = 0
KBWS 130830Z 24009KT 09/00 A2999 RMK A01 T00890002  RH  055%=      5-min Rain = 0
KBWS 130835Z 24010KT 09/00 A2998 RMK A01 T00900001  RH  054%=      5-min Rain = 0
KBWS 130840Z 24010KT 09/00 A2998 RMK A01 T00910001  RH  054%=      5-min Rain = 0
KBWS 130845Z 24011KT 09/M00 A2998 RMK A01 T00931001  RH  053%=      5-min Rain = 0
KBWS 130850Z 24011KT 09/M00 A2998 RMK A01 T00941001  RH  052%=      5-min Rain = 0
KBWS 130855Z 24011KT 09/00 A2997 RMK A01 T009400-0  RH  052%=      5-min Rain = 0
KBWS 130900Z 24011KT 09/00 A2997 RMK A01 T009300-0  RH  053%=      5-min Rain = 0
KBWS 130905Z 24011KT 09/00 A2997 RMK A01 T00930000  RH  053%=      5-min Rain = 0
KBWS 130910Z 24010KT 09/00 A2997 RMK A01 T00910001  RH  054%=      5-min Rain = 0
KBWS 130915Z 24008KT 09/00 A2997 RMK A01 T00890002  RH  055%=      5-min Rain = 0
KBWS 130920Z 25007KT 09/00 A2997 RMK A01 T00870003  RH  056%=      5-min Rain = 0
KBWS 130925Z 25009KT 09/00 A2997 RMK A01 T00850004  RH  057%=      5-min Rain = 0
KBWS 130930Z 25010KT 09/00 A2996 RMK A01 T00860003  RH  057%=      5-min Rain = 0
KBWS 130935Z 25010KT 09/00 A2996 RMK A01 T00880002  RH  055%=      5-min Rain = 0
KBWS 130940Z 25010KT 09/00 A2996 RMK A01 T00900001  RH  054%=      5-min Rain = 0
KBWS 130945Z 24010KT 09/00 A2996 RMK A01 T00900001  RH  054%=      5-min Rain = 0
KBWS 130950Z 24010KT 09/00 A2996 RMK A01 T00890001  RH  054%=      5-min Rain = 0
KBWS 130955Z 24010KT 09/00 A2996 RMK A01 T008900-0  RH  054%=      5-min Rain = 0
KBWS 131000Z 25010KT 09/M00 A2996 RMK A01 T00911002  RH  053%=      5-min Rain = 0
KBWS 131005Z 25012KT 09/M00 A2996 RMK A01 T00921003  RH  052%=      5-min Rain = 0
KBWS 131010Z 24012KT 10/M01 A2996 RMK A01 T00951005  RH  050%=      5-min Rain = 0
KBWS 131015Z 24012KT 10/M01 A2996 RMK A01 T00981006  RH  049%=      5-min Rain = 0
KBWS 131020Z 24012KT 10/M01 A2996 RMK A01 T00981006  RH  049%=      5-min Rain = 0
KBWS 131025Z 24011KT 10/M01 A2996 RMK A01 T00981006  RH  049%=      5-min Rain = 0
KBWS 131030Z 25010KT 10/M01 A2996 RMK A01 T00971006  RH  049%=      5-min Rain = 0
KBWS 131035Z 25009KT 10/M01 A2997 RMK A01 T00971006  RH  049%=      5-min Rain = 0
KBWS 131040Z 24010KT 10/M01 A2996 RMK A01 T00981008  RH  048%=      5-min Rain = 0
KBWS 131045Z 25009G14KT 10/M01 A2997 RMK A01 T01001009  RH  047%=      5-min Rain = 0
KBWS 131050Z 25009KT 10/M01 A2997 RMK A01 T00991009  RH  047%=      5-min Rain = 0
KBWS 131055Z 24009KT 10/M01 A2997 RMK A01 T00981008  RH  048%=      5-min Rain = 0
KBWS 131100Z 24009KT 10/M01 A2997 RMK A01 T00981007  RH  048%=      5-min Rain = 0
KBWS 131105Z 24007KT 10/M01 A2997 RMK A01 T00961006  RH  049%=      5-min Rain = 0
KBWS 131110Z 25006KT 09/M01 A2997 RMK A01 T00921005  RH  051%=      5-min Rain = 0
KBWS 131115Z 26006KT 09/M00 A2997 RMK A01 T00881004  RH  053%=      5-min Rain = 0
KBWS 131120Z 25006KT 09/M00 A2997 RMK A01 T00881003  RH  053%=      5-min Rain = 0
KBWS 131125Z 24006KT 09/M00 A2997 RMK A01 T00881003  RH  053%=      5-min Rain = 0
KBWS 131130Z 24007KT 09/M00 A2997 RMK A01 T00891003  RH  053%=      5-min Rain = 0
KBWS 131135Z 30006G11KT 09/M00 A2998 RMK A01 T00891002  RH  053%=      5-min Rain = 0
KBWS 131140Z 34006G12KT 09/M00 A2999 RMK A01 T00861001  RH  055%=      5-min Rain = 0
KBWS 131145Z 32004KT 08/00 A2999 RMK A01 T00830001  RH  057%=      5-min Rain = 0
KBWS 131150Z 31005KT 08/00 A2999 RMK A01 T00810001  RH  058%=      5-min Rain = 0
KBWS 131155Z 33003KT 08/00 A2999 RMK A01 T00790002  RH  059%=      5-min Rain = 0
KBWS 131200Z 30004KT 08/00 A2999 RMK A01 T00800001  RH  058%=      5-min Rain = 0
KBWS 131205Z 26006KT 08/00 A2999 RMK A01 T00790002  RH  059%=      5-min Rain = 0
KBWS 131210Z 31005KT 08/00 A2999 RMK A01 T00770003  RH  060%=      5-min Rain = 0
KBWS 131215Z 31006KT 08/00 A2999 RMK A01 T00800003  RH  059%=      5-min Rain = 0
KBWS 131220Z 26007KT 08/01 A2999 RMK A01 T00810005  RH  059%=      5-min Rain = 0
KBWS 131225Z 27004KT 08/01 A2999 RMK A01 T00820005  RH  059%=      5-min Rain = 0
KBWS 131230Z 27003KT 08/01 A2999 RMK A01 T00800006  RH  061%=      5-min Rain = 0
KBWS 131235Z 29003KT 08/01 A2999 RMK A01 T00750006  RH  062%=      5-min Rain = 0
KBWS 131240Z 29004KT 07/01 A2999 RMK A01 T00730006  RH  063%=      5-min Rain = 0
KBWS 131245Z 28004KT 07/01 A2999 RMK A01 T00700007  RH  065%=      5-min Rain = 0
KBWS 131250Z 28002KT 07/01 A2999 RMK A01 T00680007  RH  066%=      5-min Rain = 0
KBWS 131255Z 27002KT 07/01 A2999 RMK A01 T00670008  RH  067%=      5-min Rain = 0
KBWS 131300Z 27002KT 07/01 A2999 RMK A01 T00650012  RH  070%=      5-min Rain = 0
KBWS 131305Z 25001KT 06/02 A30 RMK A01 T00640017  RH  073%=      5-min Rain = 0
KBWS 131310Z 30001KT 07/01 A30 RMK A01 T00660014  RH  070%=      5-min Rain = 0
KBWS 131315Z 26003KT 07/01 A30 RMK A01 T00730008  RH  064%=      5-min Rain = 0
KBWS 131320Z 25003KT 08/02 A30 RMK A01 T00770015  RH  066%=      5-min Rain = 0
KBWS 131325Z 24003KT 08/02 A30 RMK A01 T00800020  RH  067%=      5-min Rain = 0
KBWS 131330Z 23003KT 08/02 A30 RMK A01 T00810023  RH  068%=      5-min Rain = 0
KBWS 131335Z 22004KT 08/02 A30 RMK A01 T00830023  RH  067%=      5-min Rain = 0
KBWS 131340Z 23005KT 09/02 A30 RMK A01 T00910020  RH  062%=      5-min Rain = 0
KBWS 131345Z 23005KT 10/02 A30 RMK A01 T00980018  RH  058%=      5-min Rain = 0
KBWS 131350Z 24005KT 10/02 A30 RMK A01 T01040017  RH  056%=      5-min Rain = 0
KBWS 131355Z 24006KT 11/02 A30 RMK A01 T01070015  RH  054%=      5-min Rain = 0
KBWS 131400Z 24007KT 11/02 A30 RMK A01 T01120017  RH  053%=      5-min Rain = 0
KBWS 131405Z 25005KT 12/02 A3001 RMK A01 T01170022  RH  053%=      5-min Rain = 0
KBWS 131410Z 24006KT 12/02 A3001 RMK A01 T01220023  RH  052%=      5-min Rain = 0
KBWS 131415Z 25007KT 13/03 A3001 RMK A01 T01250025  RH  051%=      5-min Rain = 0
KBWS 131420Z 24007KT 13/03 A3001 RMK A01 T01280026  RH  051%=      5-min Rain = 0
KBWS 131425Z 25007KT 13/03 A3001 RMK A01 T01310029  RH  051%=      5-min Rain = 0
KBWS 131430Z 25007KT 13/03 A3001 RMK A01 T01340029  RH  050%=      5-min Rain = 0
KBWS 131435Z 27006KT 14/03 A3001 RMK A01 T01380031  RH  049%=      5-min Rain = 0
KBWS 131440Z 27007KT 14/03 A3001 RMK A01 T01430033  RH  048%=      5-min Rain = 0
KBWS 131445Z 27006KT 15/03 A3001 RMK A01 T01450033  RH  048%=      5-min Rain = 0
KBWS 131450Z 27006KT 15/03 A3002 RMK A01 T01480034  RH  047%=      5-min Rain = 0
KBWS 131455Z 29007KT 15/03 A3002 RMK A01 T01500034  RH  046%=      5-min Rain = 0
KBWS 131500Z 28006KT 15/04 A3002 RMK A01 T01510035  RH  047%=      5-min Rain = 0
KBWS 131505Z 28004KT 15/03 A3002 RMK A01 T01520034  RH  046%=      5-min Rain = 0
KBWS 131510Z 27004KT 16/04 A3002 RMK A01 T01560038  RH  046%=      5-min Rain = 0
KBWS 131515Z 27005KT 16/04 A3002 RMK A01 T01590038  RH  045%=      5-min Rain = 0
KBWS 131520Z 27004KT 16/04 A3002 RMK A01 T01620039  RH  045%=      5-min Rain = 0
KBWS 131525Z 26003KT 17/04 A3002 RMK A01 T01650039  RH  044%=      5-min Rain = 0
KBWS 131530Z 25004KT 17/05 A3002 RMK A01 T01710045  RH  044%=      5-min Rain = 0
KBWS 131535Z 25002KT 17/04 A3002 RMK A01 T01740041  RH  042%=      5-min Rain = 0
KBWS 131540Z 23003KT 18/04 A3002 RMK A01 T01780044  RH  042%=      5-min Rain = 0
KBWS 131545Z 24003KT 18/04 A3002 RMK A01 T01780042  RH  041%=      5-min Rain = 0
KBWS 131550Z 24002KT 19/05 A3002 RMK A01 T01850046  RH  041%=      5-min Rain = 0
KBWS 131555Z 25004KT 19/05 A3002 RMK A01 T01890046  RH  040%=      5-min Rain = 0
KBWS 131600Z 24002KT 19/05 A3002 RMK A01 T01940049  RH  039%=      5-min Rain = 0
KBWS 131605Z 24003KT 20/05 A3002 RMK A01 T02020050  RH  038%=      5-min Rain = 0
KBWS 131610Z 26004KT 20/05 A3002 RMK A01 T02030049  RH  037%=      5-min Rain = 0
KBWS 131615Z 26004KT 21/06 A3002 RMK A01 T02100055  RH  037%=      5-min Rain = 0
KBWS 131620Z 26002KT 22/05 A3002 RMK A01 T02170052  RH  035%=      5-min Rain = 0
KBWS 131625Z 25003KT 22/05 A3002 RMK A01 T02200054  RH  035%=      5-min Rain = 0
KBWS 131630Z 25003KT 22/05 A3002 RMK A01 T02240053  RH  034%=      5-min Rain = 0
KBWS 131635Z 24004KT 23/05 A3002 RMK A01 T02260054  RH  033%=      5-min Rain = 0
KBWS 131640Z 25004KT 23/06 A3002 RMK A01 T02340058  RH  033%=      5-min Rain = 0
KBWS 131645Z 19004KT 24/06 A3002 RMK A01 T02380055  RH  031%=      5-min Rain = 0
KBWS 131650Z 19004KT 24/05 A3002 RMK A01 T02410052  RH  030%=      5-min Rain = 0
KBWS 131655Z 24003KT 25/05 A3002 RMK A01 T02460050  RH  029%=      5-min Rain = 0
KBWS 131700Z 25006KT 25/05 A3001 RMK A01 T02530052  RH  028%=      5-min Rain = 0
KBWS 131705Z 26005G11KT 26/05 A3001 RMK A01 T02570049  RH  027%=      5-min Rain = 0
KBWS 131710Z 28005KT 26/04 A3001 RMK A01 T02580043  RH  026%=      5-min Rain = 0
KBWS 131715Z 26004KT 26/05 A3001 RMK A01 T02600046  RH  026%=      5-min Rain = 0
KBWS 131720Z 28004G9KT 26/04 A3001 RMK A01 T02630044  RH  025%=      5-min Rain = 0
KBWS 131725Z 31005KT 26/04 A3001 RMK A01 T02620041  RH  025%=      5-min Rain = 0
KBWS 131730Z 28005G10KT 26/04 A3001 RMK A01 T02640043  RH  025%=      5-min Rain = 0
KBWS 131735Z 31006KT 27/04 A3001 RMK A01 T02660039  RH  024%=      5-min Rain = 0
KBWS 131740Z 28006KT 27/04 A3001 RMK A01 T02680042  RH  024%=      5-min Rain = 0
KBWS 131745Z 27007G14KT 27/04 A30 RMK A01 T02720038  RH  023%=      5-min Rain = 0
KBWS 131750Z 28007KT 27/04 A30 RMK A01 T02740038  RH  023%=      5-min Rain = 0
KBWS 131755Z 32005KT 27/03 A30 RMK A01 T02730032  RH  022%=      5-min Rain = 0
KBWS 131800Z 30005KT 27/03 A30 RMK A01 T02710032  RH  022%=      5-min Rain = 0
KBWS 131805Z 26004KT 28/04 A30 RMK A01 T02760037  RH  022%=      5-min Rain = 0
KBWS 131810Z 26003KT 28/03 A30 RMK A01 T02780033  RH  021%=      5-min Rain = 0
KBWS 131815Z 26006KT 28/04 A30 RMK A01 T02790035  RH  021%=      5-min Rain = 0
KBWS 131820Z 26003KT 28/03 A30 RMK A01 T02790031  RH  021%=      5-min Rain = 0
KBWS 131825Z 28008KT 28/03 A30 RMK A01 T02800030  RH  020%=      5-min Rain = 0
KBWS 131830Z 30006KT 28/02 A2999 RMK A01 T02790022  RH  019%=      5-min Rain = 0
KBWS 131835Z 29005G11KT 28/03 A2999 RMK A01 T02790027  RH  020%=      5-min Rain = 0
KBWS 131840Z 26008KT 28/03 A2999 RMK A01 T02800027  RH  020%=      5-min Rain = 0
KBWS 131845Z 27007KT 28/03 A2999 RMK A01 T02820030  RH  020%=      5-min Rain = 0
KBWS 131850Z 29005KT 28/03 A2998 RMK A01 T02810028  RH  020%=      5-min Rain = 0
KBWS 131855Z 28008KT 28/02 A2998 RMK A01 T02840024  RH  019%=      5-min Rain = 0
KBWS 131900Z 28008KT 29/03 A2998 RMK A01 T02850033  RH  020%=      5-min Rain = 0
KBWS 131905Z 27006KT 29/03 A2998 RMK A01 T02850027  RH  019%=      5-min Rain = 0
KBWS 131910Z 21003G8KT 28/02 A2997 RMK A01 T02830022  RH  019%=      5-min Rain = 0
KBWS 131915Z 28003KT 29/03 A2997 RMK A01 T02880030  RH  019%=      5-min Rain = 0
KBWS 131920Z 26007KT 29/04 A2997 RMK A01 T02920039  RH  020%=      5-min Rain = 0
KBWS 131925Z 29005G10KT 29/03 A2997 RMK A01 T02900025  RH  019%=      5-min Rain = 0
KBWS 131930Z 26006G11KT 29/03 A2996 RMK A01 T02900029  RH  019%=      5-min Rain = 0
KBWS 131935Z 22008KT 29/03 A2996 RMK A01 T02900026  RH  019%=      5-min Rain = 0
KBWS 131940Z 23006KT 29/02 A2996 RMK A01 T02880024  RH  019%=      5-min Rain = 0
KBWS 131945Z 25008G15KT 29/02 A2996 RMK A01 T02900021  RH  018%=      5-min Rain = 0
KBWS 131950Z 23006G11KT 29/03 A2996 RMK A01 T02930029  RH  019%=      5-min Rain = 0
KBWS 131955Z 24009G15KT 29/02 A2995 RMK A01 T02910020  RH  018%=      5-min Rain = 0
KBWS 132000Z 24011G16KT 29/02 A2995 RMK A01 T02920017  RH  017%=      5-min Rain = 0
KBWS 132005Z 23008G15KT 29/02 A2995 RMK A01 T02920016  RH  017%=      5-min Rain = 0
KBWS 132010Z 25007G14KT 29/02 A2995 RMK A01 T02940018  RH  017%=      5-min Rain = 0
KBWS 132015Z 26009KT 29/01 A2995 RMK A01 T02930010  RH  016%=      5-min Rain = 0
KBWS 132020Z 26008KT 29/01 A2994 RMK A01 T02930011  RH  016%=      5-min Rain = 0
KBWS 132025Z 29009KT 29/01 A2994 RMK A01 T02930007  RH  016%=      5-min Rain = 0
KBWS 132030Z 28004KT 29/00 A2994 RMK A01 T02920002  RH  016%=      5-min Rain = 0
KBWS 132035Z 25007G13KT 29/01 A2994 RMK A01 T02940011  RH  016%=      5-min Rain = 0
KBWS 132040Z 29008G13KT 29/01 A2994 RMK A01 T02940009  RH  016%=      5-min Rain = 0
KBWS 132045Z 28008G13KT 29/01 A2994 RMK A01 T02940010  RH  016%=      5-min Rain = 0
KBWS 132050Z 30007G12KT 29/01 A2994 RMK A01 T02920005  RH  016%=      5-min Rain = 0
KBWS 132055Z 29005KT 29/01 A2994 RMK A01 T02910008  RH  016%=      5-min Rain = 0
KBWS 132100Z 27007G13KT 30/02 A2994 RMK A01 T02960016  RH  017%=      5-min Rain = 0
KBWS 132105Z 26011G16KT 29/01 A2994 RMK A01 T02930009  RH  016%=      5-min Rain = 0
KBWS 132110Z 25008KT 29/01 A2994 RMK A01 T02920007  RH  016%=      5-min Rain = 0
KBWS 132115Z 26007G13KT 29/01 A2994 RMK A01 T02930005  RH  016%=      5-min Rain = 0
KBWS 132120Z 28012KT 29/01 A2994 RMK A01 T02920010  RH  017%=      5-min Rain = 0
KBWS 132125Z 28009KT 29/02 A2994 RMK A01 T02930015  RH  017%=      5-min Rain = 0
KBWS 132130Z 28006KT 29/01 A2994 RMK A01 T02920006  RH  016%=      5-min Rain = 0
KBWS 132135Z 29006KT 29/01 A2994 RMK A01 T02920009  RH  016%=      5-min Rain = 0
KBWS 132140Z 28006KT 29/01 A2994 RMK A01 T02920007  RH  016%=      5-min Rain = 0
KBWS 132145Z 24005KT 29/01 A2994 RMK A01 T02940009  RH  016%=      5-min Rain = 0
KBWS 132150Z 25007KT 29/01 A2994 RMK A01 T02940014  RH  017%=      5-min Rain = 0
KBWS 132155Z 27006KT 29/01 A2994 RMK A01 T02930009  RH  016%=      5-min Rain = 0
KBWS 132200Z 25008G14KT 29/02 A2994 RMK A01 T02940017  RH  017%=      5-min Rain = 0
KBWS 132205Z 27009KT 29/02 A2994 RMK A01 T02910017  RH  017%=      5-min Rain = 0
KBWS 132210Z 26006KT 29/02 A2994 RMK A01 T02900017  RH  018%=      5-min Rain = 0
KBWS 132215Z 28003KT 29/01 A2994 RMK A01 T02910008  RH  016%=      5-min Rain = 0
KBWS 132220Z 27008KT 29/01 A2994 RMK A01 T02900011  RH  017%=      5-min Rain = 0
KBWS 132225Z 25007KT 29/01 A2994 RMK A01 T02870012  RH  017%=      5-min Rain = 0
KBWS 132230Z 28008KT 29/01 A2994 RMK A01 T02890012  RH  017%=      5-min Rain = 0
KBWS 132235Z 28007KT 29/01 A2994 RMK A01 T02870009  RH  017%=      5-min Rain = 0
KBWS 132240Z 25009KT 29/01 A2994 RMK A01 T02870009  RH  017%=      5-min Rain = 0
KBWS 132245Z 24009KT 29/01 A2994 RMK A01 T02860010  RH  017%=      5-min Rain = 0
KBWS 132250Z 27007KT 29/01 A2994 RMK A01 T02850012  RH  017%=      5-min Rain = 0
KBWS 132255Z 27007G12KT 29/02 A2994 RMK A01 T02850016  RH  018%=      5-min Rain = 0
KBWS 132300Z 27008KT 28/01 A2994 RMK A01 T02830013  RH  018%=      5-min Rain = 0
KBWS 132305Z 26008KT 28/02 A2995 RMK A01 T02820016  RH  018%=      5-min Rain = 0
KBWS 132310Z 26007KT 28/02 A2995 RMK A01 T02810015  RH  018%=      5-min Rain = 0
KBWS 132315Z 27006KT 28/02 A2995 RMK A01 T02810017  RH  018%=      5-min Rain = 0
KBWS 132320Z 27005KT 28/02 A2995 RMK A01 T02760016  RH  019%=      5-min Rain = 0
KBWS 132325Z 26006KT 27/02 A2995 RMK A01 T02740021  RH  020%=      5-min Rain = 0
KBWS 132330Z 24005KT 27/02 A2995 RMK A01 T02720020  RH  020%=      5-min Rain = 0
KBWS 132335Z 24006KT 27/02 A2995 RMK A01 T02690015  RH  020%=      5-min Rain = 0
KBWS 132340Z 25006KT 27/02 A2995 RMK A01 T02650023  RH  021%=      5-min Rain = 0
KBWS 132345Z 26006KT 26/03 A2995 RMK A01 T02600025  RH  022%=      5-min Rain = 0
KBWS 132350Z 26005KT 26/02 A2995 RMK A01 T02550024  RH  023%=      5-min Rain = 0
KBWS 132355Z 26006KT 25/02 A2995 RMK A01 T02500022  RH  023%=      5-min Rain = 0
KBWS 140000Z 27005KT 25/02 A2995 RMK A01 T02470021  RH  023%=      5-min Rain = 0
KBWS 140005Z 26005KT 24/02 A2996 RMK A01 T02440019  RH  023%=      5-min Rain = 0
KBWS 140010Z 27005KT 24/02 A2996 RMK A01 T02410020  RH  024%=      5-min Rain = 0
KBWS 140015Z 27005KT 24/02 A2996 RMK A01 T02410018  RH  023%=      5-min Rain = 0
KBWS 140020Z 27005KT 24/02 A2996 RMK A01 T02390017  RH  024%=      5-min Rain = 0
KBWS 140025Z 28005KT 24/02 A2996 RMK A01 T02370017  RH  024%=      5-min Rain = 0
KBWS 140030Z 28005KT 24/02 A2996 RMK A01 T02360016  RH  024%=      5-min Rain = 0
KBWS 140035Z 29005KT 23/03 A2996 RMK A01 T02290027  RH  027%=      5-min Rain = 0
KBWS 140040Z 29005KT 22/03 A2996 RMK A01 T02170028  RH  029%=      5-min Rain = 0
KBWS 140045Z 29004KT 22/02 A2997 RMK A01 T02220020  RH  027%=      5-min Rain = 0
KBWS 140050Z 29004KT 23/02 A2997 RMK A01 T02260016  RH  025%=      5-min Rain = 0
KBWS 140055Z 30005KT 23/02 A2997 RMK A01 T02270017  RH  025%=      5-min Rain = 0
KBWS 140100Z 29005KT 23/02 A2997 RMK A01 T02250016  RH  026%=      5-min Rain = 0
KBWS 140105Z 29005KT 22/02 A2997 RMK A01 T02220018  RH  026%=      5-min Rain = 0
KBWS 140110Z 30005KT 22/02 A2997 RMK A01 T02170022  RH  028%=      5-min Rain = 0
KBWS 140115Z 30006KT 21/02 A2997 RMK A01 T02080024  RH  030%=      5-min Rain = 0
KBWS 140120Z 30006KT 21/02 A2997 RMK A01 T02080021  RH  029%=      5-min Rain = 0
KBWS 140125Z 30005KT 21/02 A2997 RMK A01 T02070019  RH  029%=      5-min Rain = 0
KBWS 140130Z 29005KT 21/02 A2997 RMK A01 T02060021  RH  030%=      5-min Rain = 0
KBWS 140135Z 29005KT 20/02 A2998 RMK A01 T02030019  RH  030%=      5-min Rain = 0
KBWS 140140Z 28006KT 20/02 A2998 RMK A01 T01960023  RH  032%=      5-min Rain = 0
KBWS 140145Z 27004KT 19/02 A2998 RMK A01 T01910022  RH  033%=      5-min Rain = 0
KBWS 140150Z 21004KT 18/04 A2998 RMK A01 T01840038  RH  039%=      5-min Rain = 0
KBWS 140155Z 20007KT 16/04 A2998 RMK A01 T01620042  RH  045%=      5-min Rain = 0
KBWS 140200Z 21005KT 16/04 A2999 RMK A01 T01610041  RH  046%=      5-min Rain = 0
KBWS 140205Z 23006KT 16/04 A2999 RMK A01 T01600040  RH  046%=      5-min Rain = 0
KBWS 140210Z 24006KT 17/04 A2999 RMK A01 T01670036  RH  042%=      5-min Rain = 0
KBWS 140215Z 24006KT 17/03 A2998 RMK A01 T01740031  RH  039%=      5-min Rain = 0
KBWS 140220Z 24007KT 17/03 A2998 RMK A01 T01740033  RH  040%=      5-min Rain = 0
KBWS 140225Z 24007KT 17/03 A2999 RMK A01 T01690034  RH  041%=      5-min Rain = 0
KBWS 140230Z 25007KT 17/03 A2999 RMK A01 T01680032  RH  041%=      5-min Rain = 0
KBWS 140235Z 25006KT 18/02 A2998 RMK A01 T01760024  RH  037%=      5-min Rain = 0
KBWS 140240Z 26005KT 19/02 A2998 RMK A01 T01870018  RH  033%=      5-min Rain = 0
KBWS 140245Z 25004KT 19/02 A2998 RMK A01 T01930016  RH  031%=      5-min Rain = 0
KBWS 140250Z 24005KT 19/02 A2998 RMK A01 T01870024  RH  034%=      5-min Rain = 0
KBWS 140255Z 24006KT 18/03 A2999 RMK A01 T01750030  RH  039%=      5-min Rain = 0
KBWS 140300Z 24005KT 17/03 A2999 RMK A01 T01740030  RH  039%=      5-min Rain = 0
KBWS 140305Z 24005KT 17/03 A2999 RMK A01 T01720032  RH  040%=      5-min Rain = 0
KBWS 140310Z 25006KT 17/03 A2999 RMK A01 T01660031  RH  041%=      5-min Rain = 0
KBWS 140315Z 25006KT 17/03 A2999 RMK A01 T01690027  RH  039%=      5-min Rain = 0
KBWS 140320Z 25006KT 17/03 A2999 RMK A01 T01740025  RH  037%=      5-min Rain = 0
KBWS 140325Z 27005KT 17/03 A2999 RMK A01 T01730029  RH  039%=      5-min Rain = 0
KBWS 140330Z 28006KT 16/04 A2999 RMK A01 T01640039  RH  044%=      5-min Rain = 0
KBWS 140335Z 28006KT 15/04 A2999 RMK A01 T01540039  RH  047%=      5-min Rain = 0
KBWS 140340Z 28006KT 16/03 A2999 RMK A01 T01600032  RH  043%=      5-min Rain = 0
KBWS 140345Z 27005KT 16/03 A2999 RMK A01 T01640030  RH  041%=      5-min Rain = 0
KBWS 140350Z 27005KT 17/03 A2999 RMK A01 T01670027  RH  040%=      5-min Rain = 0
KBWS 140355Z 26005KT 17/02 A2999 RMK A01 T01710023  RH  038%=      5-min Rain = 0
KBWS 140400Z 27004KT 17/03 A2999 RMK A01 T01710026  RH  038%=      5-min Rain = 0
KBWS 140405Z 27004KT 17/03 A2999 RMK A01 T01680025  RH  039%=      5-min Rain = 0
KBWS 140410Z 26005KT 17/03 A2999 RMK A01 T01670026  RH  039%=      5-min Rain = 0
KBWS 140415Z 26005KT 16/03 A2999 RMK A01 T01620027  RH  041%=      5-min Rain = 0
KBWS 140420Z 26006KT 16/03 A2999 RMK A01 T01570029  RH  043%=      5-min Rain = 0
KBWS 140425Z 26007KT 16/03 A2999 RMK A01 T01580029  RH  043%=      5-min Rain = 0
KBWS 140430Z 25007KT 16/03 A2999 RMK A01 T01590030  RH  043%=      5-min Rain = 0
KBWS 140435Z 26007KT 16/03 A2999 RMK A01 T01590028  RH  042%=      5-min Rain = 0
KBWS 140440Z 26007KT 16/03 A2999 RMK A01 T01600028  RH  042%=      5-min Rain = 0
KBWS 140445Z 26007KT 16/03 A2999 RMK A01 T01610027  RH  041%=      5-min Rain = 0
KBWS 140450Z 25007KT 16/03 A2999 RMK A01 T01590028  RH  042%=      5-min Rain = 0
KBWS 140455Z 25006KT 16/03 A2999 RMK A01 T01580028  RH  042%=      5-min Rain = 0

Page generated in 0.009 seconds.